Time;durP1;ratioP1;P1;durP2;ratioP2;P2;SDS_P1;SDS_P2;PMS_P1;PMS_P2;Temp;Humidity;BMP_temperature;BMP_pressure;BME280_temperature;BME280_humidity;BME280_pressure;Samples;Min_cycle;Max_cycle;Signal;HPM_P1;HPM_P2
2023/06/11 00:03:01;;;;;;;;;;;23.90;30.20;;;23.29;28.80;101587.47;12250747;19;19929;-84
2023/06/11 00:07:05;;;;;;;;;;;23.80;30.30;;;23.17;29.12;101580.66;12253585;19;19911;-84
2023/06/11 00:11:07;;;;;;;;;;;23.80;30.40;;;23.09;28.96;101588.53;12251774;19;19986;-83
2023/06/11 00:15:08;;;;;;;;;;;23.70;30.40;;;23.04;29.10;101596.13;12250832;19;20242;-83
2023/06/11 00:19:11;;;;;;;;;;;23.60;30.40;;;22.85;29.01;101573.84;12253035;19;19907;-84
2023/06/11 00:23:13;;;;;;;;;;;23.50;30.50;;;22.84;28.97;101585.47;12250617;19;19954;-83
2023/06/11 00:27:14;;;;;;;;;;;23.40;30.50;;;22.72;29.08;101576.81;12255931;19;19923;-84
2023/06/11 00:31:17;;;;;;;;;;;23.30;30.60;;;22.67;28.92;101588.88;12251881;19;19922;-83
2023/06/11 00:35:19;;;;;;;;;;;23.30;30.80;;;22.57;28.98;101582.72;12250306;19;19923;-83
2023/06/11 00:39:20;;;;;;;;;;;23.10;30.70;;;22.26;28.93;101556.28;12251248;19;19919;-83
2023/06/11 00:43:23;;;;;;;;;;;23.10;30.80;;;22.13;28.99;101543.22;12249202;19;19915;-83
2023/06/11 00:47:25;;;;;;;;;;;23.00;30.70;;;22.39;29.27;101579.94;12253012;19;20293;-83
2023/06/11 00:51:27;;;;;;;;;;;22.90;30.90;;;22.34;29.07;101580.38;12252113;19;19915;-83
2023/06/11 00:55:28;;;;;;;;;;;22.90;30.90;;;22.04;29.29;101544.91;12250918;19;19996;-83
2023/06/11 00:59:33;;;;;;;;;;;22.90;31.00;;;22.23;29.59;101591.16;12253693;19;19984;-84
2023/06/11 01:03:34;;;;;;;;;;;22.80;30.90;;;22.13;29.16;101584.94;12249699;19;19918;-83
2023/06/11 01:07:41;;;;;;;;;;;22.70;31.20;;;21.87;29.13;101554.41;12248786;19;19918;-84
2023/06/11 01:11:43;;;;;;;;;;;22.70;31.60;;;21.83;29.49;101560.13;12249782;19;20377;-83
2023/06/11 01:15:45;;;;;;;;;;;22.60;31.20;;;21.83;29.32;101592.88;12249466;19;20595;-83
2023/06/11 01:20:12;;;;;;;;;;;22.50;31.40;;;21.74;29.42;101584.88;12252403;19;19945;-84
2023/06/11 01:24:21;;;;;;;;;;;22.40;31.60;;;21.67;29.53;101589.91;12249764;19;19911;-83
2023/06/11 01:28:26;;;;;;;;;;;22.30;31.60;;;21.58;29.60;101590.72;12249497;19;19956;-83
2023/06/11 01:32:28;;;;;;;;;;;22.20;31.30;;;21.54;29.67;101590.13;12249508;19;19983;-84
2023/06/11 01:36:36;;;;;;;;;;;22.20;31.30;;;21.44;29.65;101589.25;12249501;19;19919;-83
2023/06/11 01:40:39;;;;;;;;;;;22.10;31.30;;;21.42;29.68;101596.53;12249946;19;19965;-83
2023/06/11 01:44:43;;;;;;;;;;;22.10;31.50;;;21.32;29.71;101595.63;12249870;19;19943;-83
2023/06/11 01:48:45;;;;;;;;;;;22.00;31.40;;;21.38;29.75;101605.75;12249932;19;19919;-83
2023/06/11 01:52:47;;;;;;;;;;;22.00;31.40;;;21.23;29.92;101591.13;12249167;19;20578;-83
2023/06/11 01:56:49;;;;;;;;;;;22.00;31.40;;;21.12;29.66;101578.78;12249375;19;19934;-84
2023/06/11 02:00:51;;;;;;;;;;;21.90;31.40;;;21.23;29.86;101596.44;12249335;19;19963;-83
2023/06/11 02:04:53;;;;;;;;;;;21.90;31.40;;;21.14;29.83;101598.03;12250284;19;20333;-83
2023/06/11 02:08:55;;;;;;;;;;;21.80;31.40;;;21.04;30.06;101592.69;12250548;19;19994;-83
2023/06/11 02:12:56;;;;;;;;;;;21.80;31.40;;;21.07;29.96;101613.69;12246534;19;19922;-83
2023/06/11 02:16:58;;;;;;;;;;;21.70;31.50;;;20.98;29.70;101602.03;12250947;19;19927;-83
2023/06/11 02:21:08;;;;;;;;;;;21.60;31.40;;;20.89;30.20;101594.00;12250010;19;19915;-83
2023/06/11 02:25:09;;;;;;;;;;;21.70;31.50;;;20.89;30.31;101596.66;12253554;19;20259;-83
2023/06/11 02:29:11;;;;;;;;;;;21.60;31.50;;;20.98;30.14;101619.75;12261296;19;19919;-83
2023/06/11 02:33:12;;;;;;;;;;;21.60;31.50;;;20.93;30.08;101609.56;12252987;19;19926;-84
2023/06/11 02:37:14;;;;;;;;;;;21.60;31.60;;;20.94;30.10;101621.84;12258696;19;19925;-83
2023/06/11 02:41:15;;;;;;;;;;;21.60;31.50;;;20.91;29.98;101618.63;12256469;19;19927;-83
2023/06/11 02:45:17;;;;;;;;;;;21.50;31.50;;;20.93;30.18;101624.66;12259060;19;19986;-83
2023/06/11 02:49:20;;;;;;;;;;;21.50;31.60;;;20.90;30.14;101622.22;12259234;19;19923;-83
2023/06/11 02:53:21;;;;;;;;;;;21.50;31.60;;;20.80;29.93;101608.91;12255753;19;19978;-83
2023/06/11 02:57:23;;;;;;;;;;;21.50;31.60;;;20.68;30.19;101600.16;12259828;19;20329;-83
2023/06/11 03:01:25;;;;;;;;;;;21.50;31.60;;;20.71;30.31;101617.63;12257717;19;19926;-83
2023/06/11 03:05:26;;;;;;;;;;;21.40;31.60;;;20.66;30.19;101631.31;12258290;19;19919;-83
2023/06/11 03:09:28;;;;;;;;;;;21.40;31.60;;;20.57;30.07;101640.00;12258522;19;19922;-83
2023/06/11 03:13:30;;;;;;;;;;;21.30;31.60;;;20.42;30.53;101626.19;12255107;19;19928;-83
2023/06/11 03:17:32;;;;;;;;;;;21.20;31.60;;;20.15;30.59;101599.28;12260356;19;19915;-83
2023/06/11 03:21:33;;;;;;;;;;;21.10;31.60;;;20.21;30.14;101626.13;12255340;19;19925;-83
2023/06/11 03:25:35;;;;;;;;;;;21.00;31.70;;;20.05;30.56;101621.22;12256692;19;19927;-83
2023/06/11 03:29:37;;;;;;;;;;;20.90;31.70;;;20.03;30.27;101636.41;12253162;19;19926;-84
2023/06/11 03:33:39;;;;;;;;;;;20.80;32.00;;;19.74;30.49;101601.66;12252609;19;19910;-83
2023/06/11 03:37:40;;;;;;;;;;;20.70;32.00;;;19.82;30.55;101625.75;12251090;19;19911;-83
2023/06/11 03:41:47;;;;;;;;;;;20.60;32.40;;;19.63;30.53;101625.47;12254092;19;19929;-83
2023/06/11 03:45:50;;;;;;;;;;;20.50;32.20;;;19.33;30.83;101603.06;12254584;19;20282;-83
2023/06/11 03:49:52;;;;;;;;;;;20.40;32.50;;;19.50;30.86;101635.38;12256901;19;19935;-83
2023/06/11 03:53:54;;;;;;;;;;;20.30;32.20;;;19.52;30.60;101652.81;12252615;19;19923;-83
2023/06/11 03:57:56;;;;;;;;;;;20.20;32.70;;;19.44;30.95;101645.50;12255441;19;19915;-83
2023/06/11 04:01:59;;;;;;;;;;;20.20;32.40;;;19.26;31.15;101635.47;12254453;19;20029;-83
2023/06/11 04:06:02;;;;;;;;;;;20.10;32.90;;;19.31;31.14;101658.00;12256205;19;20292;-84
2023/06/11 04:10:03;;;;;;;;;;;20.10;32.80;;;19.29;30.85;101657.25;12255977;19;19931;-83
2023/06/11 04:14:08;;;;;;;;;;;20.10;32.50;;;19.17;31.32;101640.53;12247393;19;19922;-82
2023/06/11 04:18:10;;;;;;;;;;;20.00;32.90;;;19.23;31.21;101661.22;12251763;19;19922;-83
2023/06/11 04:22:12;;;;;;;;;;;20.00;33.00;;;19.21;31.40;101662.31;12246073;19;19927;-83
2023/06/11 04:26:15;;;;;;;;;;;20.00;32.90;;;19.11;31.32;101653.38;12249395;19;19923;-83
2023/06/11 04:30:20;;;;;;;;;;;20.00;33.20;;;19.18;31.53;101671.34;12250848;19;19915;-82
2023/06/11 04:34:29;;;;;;;;;;;20.00;33.40;;;19.21;31.24;101665.78;12247612;19;19923;-83
2023/06/11 04:38:32;;;;;;;;;;;20.00;33.10;;;19.18;31.35;101658.09;12247534;19;19990;-83
2023/06/11 04:42:34;;;;;;;;;;;20.00;33.80;;;19.10;31.39;101638.47;12243671;19;19930;-83
2023/06/11 04:46:38;;;;;;;;;;;20.10;33.00;;;19.32;31.41;101675.56;12250034;19;19922;-83
2023/06/11 04:50:41;;;;;;;;;;;20.10;33.70;;;19.09;31.69;101624.38;12249134;19;19926;-83
2023/06/11 04:54:44;;;;;;;;;;;20.20;34.00;;;19.39;31.58;101660.91;12247091;19;19919;-83
2023/06/11 04:58:49;;;;;;;;;;;20.20;33.60;;;19.44;31.65;101664.03;12249406;19;19927;-83
2023/06/11 05:02:51;;;;;;;;;;;20.30;34.10;;;19.52;31.99;101670.53;12247582;19;19907;-83
2023/06/11 05:06:54;;;;;;;;;;;20.30;34.90;;;19.45;31.65;101648.97;12250054;19;19923;-83
2023/06/11 05:10:58;;;;;;;;;;;20.40;34.20;;;19.56;31.90;101651.63;12249199;19;19931;-83
2023/06/11 05:15:01;;;;;;;;;;;20.50;33.80;;;19.73;31.92;101668.03;12248028;19;20317;-83
2023/06/11 05:19:05;;;;;;;;;;;20.60;33.40;;;19.69;31.89;101650.72;12248449;19;20261;-83
2023/06/11 05:23:08;;;;;;;;;;;20.60;33.90;;;19.80;31.94;101666.59;12246623;19;19930;-83
2023/06/11 05:27:11;;;;;;;;;;;20.70;34.10;;;19.74;31.88;101644.06;12248886;19;19919;-83
2023/06/11 05:31:21;;;;;;;;;;;20.80;34.30;;;19.87;32.02;101650.09;12247906;19;19915;-84
2023/06/11 05:35:25;;;;;;;;;;;20.80;34.20;;;20.03;32.12;101664.75;12246996;19;20026;-83
2023/06/11 05:39:27;;;;;;;;;;;20.90;33.80;;;20.04;32.33;101645.25;12250084;19;19923;-83
2023/06/11 05:43:29;;;;;;;;;;;21.00;33.50;;;20.23;32.07;101660.50;12247620;19;20253;-83
2023/06/11 05:47:32;;;;;;;;;;;21.20;34.30;;;20.40;32.00;101675.03;12249397;19;20482;-83
2023/06/11 05:51:35;;;;;;;;;;;21.30;34.00;;;20.25;31.95;101627.59;12248214;19;19929;-83
2023/06/11 05:55:38;;;;;;;;;;;21.40;34.70;;;20.61;32.23;101675.97;12246816;19;20345;-84
2023/06/11 05:59:42;;;;;;;;;;;21.50;35.40;;;20.75;32.10;101675.66;12248716;19;19922;-84
2023/06/11 06:03:43;;;;;;;;;;;21.60;34.10;;;20.78;32.39;101662.13;12241070;19;20279;-83
2023/06/11 06:07:45;;;;;;;;;;;21.70;33.90;;;20.99;32.20;101656.00;12251839;19;20458;-84
2023/06/11 06:11:46;;;;;;;;;;;22.00;34.50;;;21.32;32.32;101680.66;12248079;19;19926;-83
2023/06/11 06:15:49;;;;;;;;;;;22.20;34.60;;;21.43;32.19;101669.97;12246789;19;19919;-84
2023/06/11 06:19:53;;;;;;;;;;;22.30;33.80;;;21.64;32.31;101684.06;12252701;19;20007;-83
2023/06/11 06:23:54;;;;;;;;;;;22.60;33.30;;;21.77;32.13;101681.19;12242395;19;20286;-83
2023/06/11 06:27:56;;;;;;;;;;;22.70;33.60;;;21.93;32.47;101683.34;12248532;19;19919;-83
2023/06/11 06:31:59;;;;;;;;;;;22.90;34.00;;;22.03;32.33;101667.38;12244308;19;19933;-83
2023/06/11 06:36:02;;;;;;;;;;;23.10;33.70;;;22.23;32.39;101684.28;12246849;19;19907;-83
2023/06/11 06:40:06;;;;;;;;;;;23.20;34.10;;;22.31;32.48;101685.28;12245866;19;19930;-83
2023/06/11 06:44:07;;;;;;;;;;;23.30;33.40;;;22.38;32.57;101674.91;12240652;19;19918;-81
2023/06/11 06:48:10;;;;;;;;;;;23.40;33.20;;;22.50;32.08;101684.47;12244579;19;19915;-82
2023/06/11 06:52:12;;;;;;;;;;;23.50;33.00;;;22.61;32.14;101669.34;12236691;19;19991;-81
2023/06/11 06:56:14;;;;;;;;;;;23.60;33.10;;;22.67;32.10;101674.91;12241449;19;19923;-85
2023/06/11 07:00:17;;;;;;;;;;;23.70;32.90;;;22.78;32.08;101681.09;12242059;19;19958;-83
2023/06/11 07:04:19;;;;;;;;;;;23.80;32.90;;;22.85;32.11;101677.72;12239342;19;19919;-84
2023/06/11 07:08:21;;;;;;;;;;;24.00;33.00;;;23.04;32.22;101687.56;12242284;19;19922;-82
2023/06/11 07:12:23;;;;;;;;;;;24.00;33.10;;;22.91;32.40;101660.34;12249690;19;19922;-83
2023/06/11 07:16:25;;;;;;;;;;;24.10;33.70;;;23.17;32.29;101692.59;12253210;19;20420;-82
2023/06/11 07:20:33;;;;;;;;;;;24.20;33.00;;;23.13;32.22;101685.84;12253548;19;20278;-82
2023/06/11 07:24:35;;;;;;;;;;;24.20;32.90;;;23.19;32.19;101679.94;12252842;19;19918;-81
2023/06/11 07:28:40;;;;;;;;;;;24.30;33.20;;;23.38;32.51;101689.72;12257332;19;19918;-83
2023/06/11 07:32:42;;;;;;;;;;;24.30;33.20;;;23.54;32.23;101702.44;12255189;19;19945;-83
2023/06/11 07:36:44;;;;;;;;;;;24.50;33.00;;;23.64;32.23;101685.41;12258296;19;19910;-82
2023/06/11 07:40:46;;;;;;;;;;;24.60;33.00;;;23.75;32.49;101681.75;12257909;19;19931;-83
2023/06/11 07:44:48;;;;;;;;;;;24.80;33.20;;;23.91;32.14;101683.78;12260812;19;19918;-83
2023/06/11 07:48:51;;;;;;;;;;;24.90;33.10;;;24.13;32.13;101689.69;12254257;19;20328;-83
2023/06/11 07:52:52;;;;;;;;;;;25.10;33.00;;;24.32;32.30;101688.72;12253321;19;20019;-84
2023/06/11 07:56:58;;;;;;;;;;;25.20;32.90;;;24.42;32.22;101671.66;12254956;19;19995;-82
2023/06/11 08:01:00;;;;;;;;;;;25.40;33.10;;;24.67;31.94;101687.94;12251988;19;19918;-81
2023/06/11 08:05:01;;;;;;;;;;;25.60;33.10;;;24.80;31.84;101683.03;12253415;19;19918;-83
2023/06/11 08:09:03;;;;;;;;;;;25.80;33.10;;;24.89;32.26;101681.25;12253073;19;19935;-82
2023/06/11 08:13:04;;;;;;;;;;;25.90;32.90;;;25.01;32.08;101684.53;12248416;19;19911;-83
2023/06/11 08:17:08;;;;;;;;;;;26.00;33.00;;;24.93;32.08;101655.94;12246004;19;19975;-80
2023/06/11 08:21:09;;;;;;;;;;;26.10;32.80;;;25.22;32.22;101676.19;12243187;19;19983;-81
2023/06/11 08:25:11;;;;;;;;;;;26.20;32.90;;;25.34;31.81;101683.78;12239981;19;19922;-82
2023/06/11 08:29:12;;;;;;;;;;;26.30;32.70;;;25.54;31.99;101683.56;12245879;19;19974;-82
2023/06/11 08:33:14;;;;;;;;;;;26.50;32.70;;;25.65;31.74;101680.59;12244875;19;19923;-82
2023/06/11 08:37:15;;;;;;;;;;;26.60;32.70;;;25.77;32.12;101668.63;12246064;19;19939;-82
2023/06/11 08:41:17;;;;;;;;;;;26.80;32.90;;;25.96;31.83;101675.56;12246074;19;19919;-82
2023/06/11 08:45:22;;;;;;;;;;;27.00;32.70;;;26.11;32.11;101666.91;12240988;19;21702;-82
2023/06/11 08:49:24;;;;;;;;;;;27.10;32.60;;;26.21;32.06;101662.25;12249298;19;19982;-82
2023/06/11 08:53:27;;;;;;;;;;;27.20;32.70;;;26.29;31.54;101648.03;12245262;19;19911;-83
2023/06/11 08:57:30;;;;;;;;;;;27.40;32.50;;;26.54;31.66;101662.31;12247259;19;20333;-82
2023/06/11 09:01:32;;;;;;;;;;;27.50;32.40;;;26.64;31.52;101657.63;12249316;19;20222;-82
2023/06/11 09:05:35;;;;;;;;;;;27.60;32.40;;;26.68;31.77;101637.53;12248591;19;19944;-82
2023/06/11 09:09:36;;;;;;;;;;;27.70;32.50;;;26.84;31.44;101632.19;12247448;19;20563;-82
2023/06/11 09:13:40;;;;;;;;;;;27.90;32.50;;;27.01;31.48;101642.88;12244007;19;19923;-83
2023/06/11 09:17:42;;;;;;;;;;;28.00;32.20;;;27.14;31.53;101632.47;12241368;19;19970;-82
2023/06/11 09:21:51;;;;;;;;;;;28.10;32.40;;;27.31;31.42;101638.63;12243414;19;19935;-82
2023/06/11 09:25:53;;;;;;;;;;;28.20;32.20;;;27.38;31.63;101628.88;12246260;19;19923;-82
2023/06/11 09:29:55;;;;;;;;;;;28.40;32.20;;;27.50;31.39;101632.03;12246057;19;19931;-82
2023/06/11 09:34:06;;;;;;;;;;;28.50;32.00;;;27.66;31.43;101626.59;12238652;19;19915;-81
2023/06/11 09:38:13;;;;;;;;;;;28.60;32.30;;;27.84;31.29;101631.75;12244295;19;20220;-83
2023/06/11 09:42:26;;;;;;;;;;;28.80;32.40;;;28.07;31.29;101631.75;12244431;19;19923;-84
2023/06/11 09:46:28;;;;;;;;;;;29.00;32.40;;;28.16;31.52;101628.00;12245361;19;19946;-82
2023/06/11 09:50:30;;;;;;;;;;;29.10;32.00;;;28.23;31.20;101620.91;12245450;19;19936;-82
2023/06/11 09:54:33;;;;;;;;;;;29.20;32.20;;;28.41;31.50;101619.78;12243273;19;19915;-81
2023/06/11 09:58:35;;;;;;;;;;;29.40;32.20;;;28.52;31.17;101622.06;12244294;19;19985;-81
2023/06/11 10:02:40;;;;;;;;;;;29.50;32.20;;;28.70;30.97;101635.16;12241638;19;20325;-83
2023/06/11 10:06:46;;;;;;;;;;;29.60;32.10;;;28.68;31.15;101613.84;12245589;19;20322;-82
2023/06/11 10:10:53;;;;;;;;;;;29.80;32.00;;;28.67;30.79;101593.34;12243690;19;19927;-85
2023/06/11 10:14:56;;;;;;;;;;;29.90;32.10;;;29.01;30.72;101628.81;12245997;19;19911;-84
2023/06/11 10:19:06;;;;;;;;;;;30.00;31.70;;;29.13;30.91;101632.75;12247155;19;19930;-84
2023/06/11 10:23:11;;;;;;;;;;;30.10;31.90;;;29.22;30.88;101617.34;12244392;19;19915;-84
2023/06/11 10:27:13;;;;;;;;;;;30.10;31.70;;;29.28;30.50;101616.63;12247781;19;19926;-84
2023/06/11 10:31:41;;;;;;;;;;;30.20;31.10;;;29.32;30.71;101617.88;12241894;19;19919;-85
2023/06/11 10:35:46;;;;;;;;;;;30.30;31.70;;;29.45;30.94;101623.44;12242527;19;19919;-85
2023/06/11 10:39:55;;;;;;;;;;;30.30;31.60;;;29.49;30.52;101616.69;12249301;19;19922;-84
2023/06/11 10:43:57;;;;;;;;;;;30.40;30.00;;;29.47;30.24;101610.66;12248228;19;20333;-84
2023/06/11 10:48:00;;;;;;;;;;;30.40;30.90;;;29.44;30.23;101604.81;12262650;19;20337;-85
2023/06/11 10:52:02;;;;;;;;;;;30.40;30.00;;;29.55;30.14;101615.09;12256909;19;19919;-85
2023/06/11 10:56:04;;;;;;;;;;;30.50;31.20;;;29.53;30.04;101609.06;12241590;19;19915;-85
2023/06/11 11:00:09;;;;;;;;;;;30.50;31.20;;;29.68;30.04;101620.69;12255220;19;19927;-84
2023/06/11 11:04:10;;;;;;;;;;;30.50;30.90;;;29.72;30.11;101605.78;12252858;19;19939;-84
2023/06/11 11:08:12;;;;;;;;;;;30.60;31.40;;;29.75;29.91;101601.88;12257336;19;19919;-85
2023/06/11 11:12:14;;;;;;;;;;;30.70;31.10;;;29.73;29.91;101610.19;12256005;19;19927;-85
2023/06/11 11:16:20;;;;;;;;;;;30.60;30.40;;;29.65;30.00;101607.59;12250295;19;20544;-85
2023/06/11 11:20:21;;;;;;;;;;;30.50;30.80;;;29.51;29.87;101593.09;12256115;19;19911;-84
2023/06/11 11:24:23;;;;;;;;;;;30.50;31.30;;;29.63;29.91;101598.00;12253719;19;19955;-85
2023/06/11 11:28:26;;;;;;;;;;;30.50;31.40;;;29.42;30.01;101570.00;12256026;19;20013;-84
2023/06/11 11:32:31;;;;;;;;;;;30.50;31.50;;;29.60;30.07;101591.13;12252613;19;20308;-84
2023/06/11 11:36:32;;;;;;;;;;;30.50;31.50;;;29.69;29.87;101597.28;12255294;19;19935;-84
2023/06/11 11:40:36;;;;;;;;;;;30.50;31.60;;;29.72;29.78;101586.13;12253490;19;19910;-85
2023/06/11 11:44:39;;;;;;;;;;;30.50;31.50;;;29.80;29.85;101593.25;12254382;19;19935;-84
2023/06/11 11:48:42;;;;;;;;;;;30.50;31.70;;;29.95;30.01;101592.19;12255955;19;19922;-84
2023/06/11 11:52:45;;;;;;;;;;;30.60;31.80;;;30.06;30.04;101584.63;12251681;19;19992;-86
2023/06/11 11:56:48;;;;;;;;;;;30.80;31.80;;;30.12;30.15;101591.94;12239585;19;19914;-83
2023/06/11 12:00:58;;;;;;;;;;;30.90;31.90;;;30.14;29.79;101582.63;12242767;19;19919;-83
2023/06/11 12:26:36;;;;;;;;;;;31.20;31.50;;;30.31;29.55;101541.97;12142671;19;19930;-83
2023/06/11 12:30:38;;;;;;;;;;;31.20;31.60;;;30.32;29.99;101536.34;12226440;19;19987;-84
2023/06/11 12:34:40;;;;;;;;;;;31.30;31.70;;;30.60;29.79;101578.69;12238853;19;19919;-84
2023/06/11 12:38:45;;;;;;;;;;;31.30;31.30;;;30.53;29.50;101567.00;12241984;19;19951;-84
2023/06/11 12:42:49;;;;;;;;;;;31.30;31.50;;;30.56;29.45;101572.81;12245025;19;19919;-84
2023/06/11 12:46:51;;;;;;;;;;;31.30;31.60;;;30.43;29.75;101548.47;12243719;19;19915;-85
2023/06/11 12:50:53;;;;;;;;;;;31.30;31.50;;;30.49;29.74;101546.84;12246826;19;20374;-85
2023/06/11 12:54:55;;;;;;;;;;;31.30;31.60;;;30.57;29.46;101552.09;12242657;19;19922;-86
2023/06/11 12:58:58;;;;;;;;;;;31.30;31.60;;;30.57;29.76;101546.69;12242380;19;20007;-84
2023/06/11 13:03:01;;;;;;;;;;;31.30;31.00;;;30.49;29.74;101528.84;12245320;19;20394;-84
2023/06/11 13:07:04;;;;;;;;;;;31.30;31.30;;;30.70;29.45;101552.19;12237328;19;20358;-84
2023/06/11 13:11:05;;;;;;;;;;;31.30;31.40;;;30.68;29.37;101538.06;12249414;19;19945;-84
2023/06/11 13:15:07;;;;;;;;;;;31.40;31.30;;;30.71;29.76;101536.84;12245319;19;19919;-84
2023/06/11 13:19:09;;;;;;;;;;;31.40;31.40;;;30.79;29.50;101542.09;12247541;19;19919;-84
2023/06/11 13:23:20;;;;;;;;;;;31.50;31.10;;;30.79;29.53;101529.44;12249418;19;20317;-84
2023/06/11 13:27:21;;;;;;;;;;;31.50;31.50;;;30.88;29.57;101527.44;12248483;19;20555;-84
2023/06/11 13:31:23;;;;;;;;;;;31.60;31.00;;;30.83;29.22;101522.63;12241753;19;20591;-84
2023/06/11 13:35:24;;;;;;;;;;;31.60;31.00;;;30.90;29.54;101541.56;12235527;19;19963;-84
2023/06/11 13:39:26;;;;;;;;;;;31.60;31.10;;;30.80;29.26;101525.72;12246826;19;19919;-84
2023/06/11 13:43:27;;;;;;;;;;;31.60;31.10;;;30.75;29.17;101516.53;12245037;19;19923;-83
2023/06/11 13:47:29;;;;;;;;;;;31.60;31.00;;;30.81;29.51;101534.63;12243368;19;19915;-83
2023/06/11 13:51:32;;;;;;;;;;;31.50;30.90;;;30.75;29.04;101521.94;12238600;19;19915;-83
2023/06/11 13:55:34;;;;;;;;;;;31.40;31.30;;;30.70;29.05;101530.59;12238542;19;19934;-83
2023/06/11 13:59:37;;;;;;;;;;;31.40;30.20;;;30.65;29.08;101533.09;12241267;19;19914;-83
2023/06/11 14:03:38;;;;;;;;;;;31.30;30.80;;;30.60;29.38;101527.44;12243596;19;19927;-83
2023/06/11 14:07:41;;;;;;;;;;;31.30;30.70;;;30.61;29.28;101523.72;12241572;19;19919;-82
2023/06/11 14:11:42;;;;;;;;;;;31.30;30.70;;;30.70;29.23;101529.78;12241863;19;19947;-83
2023/06/11 14:15:44;;;;;;;;;;;31.30;30.90;;;30.63;29.10;101505.47;12242284;19;19927;-83
2023/06/11 14:19:45;;;;;;;;;;;31.30;30.50;;;30.75;29.19;101520.06;12245026;19;19982;-83
2023/06/11 14:23:47;;;;;;;;;;;31.30;30.70;;;30.83;29.26;101514.53;12258136;19;19986;-83
2023/06/11 14:27:48;;;;;;;;;;;31.40;30.50;;;30.85;29.14;101506.25;12255062;19;19925;-83
2023/06/11 14:31:49;;;;;;;;;;;31.50;30.10;;;30.93;28.85;101514.19;12254409;19;19914;-82
2023/06/11 14:35:51;;;;;;;;;;;31.50;30.00;;;30.95;28.75;101511.28;12251400;19;19936;-84
2023/06/11 14:39:53;;;;;;;;;;;31.60;29.90;;;30.99;28.69;101512.53;12248957;19;20273;-83
2023/06/11 14:43:55;;;;;;;;;;;31.70;30.60;;;31.11;28.58;101515.50;12255484;19;19922;-83
2023/06/11 14:47:56;;;;;;;;;;;31.70;30.10;;;31.15;28.86;101497.88;12250799;19;20546;-83
2023/06/11 14:51:59;;;;;;;;;;;31.80;29.80;;;31.13;28.34;101508.03;12252522;19;19949;-83
2023/06/11 14:56:01;;;;;;;;;;;31.80;28.70;;;31.03;28.25;101486.84;12250634;19;19927;-83
2023/06/11 15:00:04;;;;;;;;;;;31.80;28.90;;;31.14;28.53;101488.13;12247369;19;19915;-83
2023/06/11 15:04:05;;;;;;;;;;;31.80;29.80;;;31.20;28.25;101498.09;12253457;19;19927;-82
2023/06/11 15:08:06;;;;;;;;;;;31.80;29.40;;;31.14;28.72;101471.94;12248892;19;19919;-83
2023/06/11 15:12:10;;;;;;;;;;;31.90;30.30;;;31.26;28.23;101476.53;12253044;19;19936;-83
2023/06/11 15:16:12;;;;;;;;;;;31.90;28.80;;;31.33;28.03;101483.81;12246499;19;20533;-84
2023/06/11 15:20:13;;;;;;;;;;;32.00;29.10;;;31.40;28.08;101492.78;12246170;19;20355;-84
2023/06/11 15:24:15;;;;;;;;;;;32.00;28.60;;;31.38;27.85;101482.22;12252221;19;19919;-84
2023/06/11 15:28:16;;;;;;;;;;;32.00;30.00;;;31.35;27.93;101465.53;12250801;19;19918;-84
2023/06/11 15:32:19;;;;;;;;;;;32.10;29.20;;;31.45;28.24;101484.91;12253639;19;19935;-83
2023/06/11 15:36:20;;;;;;;;;;;32.10;29.60;;;31.42;27.93;101480.75;12249293;19;19955;-83
2023/06/11 15:40:22;;;;;;;;;;;32.00;29.40;;;31.39;27.70;101474.94;12248896;19;19922;-83
2023/06/11 15:44:24;;;;;;;;;;;32.00;29.40;;;31.33;28.03;101473.84;12254085;19;19919;-83
2023/06/11 15:48:25;;;;;;;;;;;32.00;29.20;;;31.23;27.61;101466.13;12251670;19;19944;-83
2023/06/11 15:52:26;;;;;;;;;;;31.90;29.70;;;31.24;27.56;101465.09;12249407;19;19923;-83
2023/06/11 15:56:28;;;;;;;;;;;31.90;29.10;;;31.22;27.88;101459.09;12249851;19;19923;-83
2023/06/11 16:00:30;;;;;;;;;;;31.80;29.10;;;31.23;27.93;101466.13;12251542;19;20348;-83
2023/06/11 16:04:32;;;;;;;;;;;31.80;28.70;;;31.20;27.83;101466.53;12252054;19;19918;-82
2023/06/11 16:08:34;;;;;;;;;;;31.80;29.10;;;31.21;27.49;101462.78;12253059;19;20393;-82
2023/06/11 16:12:36;;;;;;;;;;;31.80;29.30;;;31.20;27.53;101460.31;12254935;19;19918;-83
2023/06/11 16:16:37;;;;;;;;;;;31.80;29.00;;;31.20;27.35;101460.31;12245820;19;19911;-84
2023/06/11 16:20:39;;;;;;;;;;;31.80;29.60;;;31.19;27.36;101454.09;12253505;19;19930;-82
2023/06/11 16:24:41;;;;;;;;;;;31.80;29.50;;;31.27;27.62;101458.44;12248805;19;19935;-83
2023/06/11 16:28:42;;;;;;;;;;;31.80;29.70;;;31.28;27.23;101462.84;12248272;19;19923;-84
2023/06/11 16:32:44;;;;;;;;;;;31.80;29.30;;;31.22;27.44;101459.09;12244269;19;19939;-82
2023/06/11 16:36:45;;;;;;;;;;;31.80;29.40;;;31.16;27.40;101467.97;12245283;19;19930;-82
2023/06/11 16:40:47;;;;;;;;;;;31.80;28.90;;;31.07;27.39;101469.19;12245492;19;19919;-82
2023/06/11 16:44:48;;;;;;;;;;;31.70;28.60;;;30.90;27.32;101452.53;12239825;19;19954;-82
2023/06/11 16:48:50;;;;;;;;;;;31.60;28.90;;;30.91;27.18;101461.47;12240704;19;20381;-82
2023/06/11 16:52:52;;;;;;;;;;;31.50;28.80;;;30.80;26.94;101452.03;12241973;19;19923;-82
2023/06/11 16:56:53;;;;;;;;;;;31.50;29.40;;;30.81;27.03;101457.28;12242013;19;19919;-82
2023/06/11 17:00:54;;;;;;;;;;;31.40;29.40;;;30.81;27.06;101462.69;12244599;19;19923;-81
2023/06/11 17:04:56;;;;;;;;;;;31.30;29.40;;;30.74;27.05;101460.94;12243973;19;19923;-82
2023/06/11 17:08:58;;;;;;;;;;;31.30;29.60;;;30.69;26.86;101460.69;12245232;19;19932;-82
2023/06/11 17:13:00;;;;;;;;;;;31.30;29.50;;;30.65;26.93;101458.41;12244116;19;19928;-82
2023/06/11 17:17:01;;;;;;;;;;;31.30;29.40;;;30.61;26.93;101461.69;12241829;19;19919;-82
2023/06/11 17:21:19;;;;;;;;;;;31.20;28.90;;;30.51;27.06;101466.59;12238871;19;19936;-84
2023/06/11 17:25:25;;;;;;;;;;;31.10;29.00;;;30.13;27.14;101415.75;12235601;19;19911;-84
2023/06/11 17:29:28;;;;;;;;;;;31.00;28.30;;;30.06;26.85;101426.50;12245313;19;19948;-81
2023/06/11 17:33:30;;;;;;;;;;;30.90;28.50;;;30.18;27.12;101457.25;12241359;19;19922;-83
2023/06/11 17:37:32;;;;;;;;;;;30.80;29.00;;;30.16;26.98;101458.47;12245583;19;19970;-80
2023/06/11 17:41:33;;;;;;;;;;;30.70;29.30;;;30.11;26.93;101453.69;12245535;19;20385;-81
2023/06/11 17:45:35;;;;;;;;;;;30.60;29.50;;;29.94;26.88;101442.34;12247576;19;19933;-81
2023/06/11 17:49:36;;;;;;;;;;;30.60;29.30;;;29.91;26.92;101448.13;12238687;19;19922;-84
2023/06/11 17:53:38;;;;;;;;;;;30.50;29.40;;;29.84;26.92;101452.66;12241792;19;19923;-83
2023/06/11 17:57:42;;;;;;;;;;;30.40;29.40;;;29.78;26.90;101456.09;12242910;19;19934;-83
2023/06/11 18:01:43;;;;;;;;;;;30.30;29.30;;;29.72;27.10;101456.88;12245350;19;20378;-83
2023/06/11 18:05:45;;;;;;;;;;;30.30;29.30;;;29.65;26.98;101447.88;12243501;19;19923;-83
2023/06/11 18:09:46;;;;;;;;;;;30.20;29.30;;;29.58;26.89;101449.69;12241834;19;19918;-83
2023/06/11 18:13:48;;;;;;;;;;;30.10;29.40;;;29.47;27.06;101451.03;12242601;19;19970;-83
2023/06/11 18:17:49;;;;;;;;;;;30.00;29.30;;;29.42;26.84;101442.69;12241480;19;19923;-80
2023/06/11 18:21:50;;;;;;;;;;;30.00;29.40;;;29.30;26.92;101447.72;12234111;19;20534;-83
2023/06/11 18:25:52;;;;;;;;;;;29.90;29.40;;;29.29;26.94;101457.66;12239871;19;19930;-80
2023/06/11 18:29:53;;;;;;;;;;;29.80;29.40;;;29.21;27.32;101454.25;12237019;19;20030;-80
2023/06/11 18:33:55;;;;;;;;;;;29.70;29.50;;;29.16;27.00;101452.13;12243059;19;20234;-83